createdAt,value
2023-05-19T00:00:00.235Z,95447.00
2023-05-19T00:01:00.243Z,95447.00
2023-05-19T00:02:00.297Z,95449.00
2023-05-19T00:03:00.423Z,95447.00
2023-05-19T00:04:00.242Z,95447.00
2023-05-19T00:05:00.248Z,95447.00
2023-05-19T00:06:00.289Z,95447.00
2023-05-19T00:07:00.244Z,95445.00
2023-05-19T00:08:00.242Z,95445.00
2023-05-19T00:09:00.251Z,95447.00
2023-05-19T00:10:00.239Z,95447.00
2023-05-19T00:11:00.238Z,95449.00
2023-05-19T00:12:00.270Z,95453.00
2023-05-19T00:13:00.236Z,95453.00
2023-05-19T00:14:00.255Z,95453.00
2023-05-19T00:15:00.250Z,95455.00
2023-05-19T00:16:00.363Z,95453.00
2023-05-19T00:17:00.246Z,95451.00
2023-05-19T00:18:00.312Z,95453.00
2023-05-19T00:19:00.475Z,95453.00
2023-05-19T00:20:00.253Z,95453.00
2023-05-19T00:21:00.244Z,95457.00
2023-05-19T00:22:00.247Z,95455.00
2023-05-19T00:23:00.244Z,95453.00
2023-05-19T00:24:00.297Z,95447.00
2023-05-19T00:25:00.301Z,95447.00
2023-05-19T00:26:00.260Z,95445.00
2023-05-19T00:27:00.244Z,95447.00
2023-05-19T00:28:00.850Z,95447.00
2023-05-19T00:29:00.253Z,95445.00
2023-05-19T00:30:00.246Z,95445.00
2023-05-19T00:31:00.253Z,95447.00
2023-05-19T00:32:00.529Z,95445.00
2023-05-19T00:33:00.378Z,95445.00
2023-05-19T00:34:00.260Z,95445.00
2023-05-19T00:35:00.307Z,95447.00
2023-05-19T00:36:00.288Z,95443.00
2023-05-19T00:37:00.324Z,95445.00
2023-05-19T00:38:00.319Z,95445.00
2023-05-19T00:39:00.348Z,95447.00
2023-05-19T00:40:00.375Z,95447.00
2023-05-19T00:41:00.385Z,95451.00
2023-05-19T00:42:00.397Z,95445.00
2023-05-19T00:43:00.426Z,95449.00
2023-05-19T00:44:00.519Z,95447.00
2023-05-19T00:45:00.486Z,95449.00
2023-05-19T00:46:00.496Z,95449.00
2023-05-19T00:47:00.594Z,95449.00
2023-05-19T00:48:00.559Z,95449.00
2023-05-19T00:49:00.545Z,95451.00
2023-05-19T00:50:00.611Z,95449.00
2023-05-19T00:51:00.595Z,95447.00
2023-05-19T00:52:00.609Z,95447.00
2023-05-19T00:53:00.636Z,95443.00
2023-05-19T00:54:00.652Z,95445.00
2023-05-19T00:55:00.669Z,95443.00
2023-05-19T00:56:00.697Z,95443.00
2023-05-19T00:57:00.700Z,95439.00
2023-05-19T00:58:00.738Z,95443.00
2023-05-19T00:59:00.753Z,95439.00
2023-05-19T01:00:00.809Z,95437.00
2023-05-19T01:01:00.872Z,95437.00
2023-05-19T01:02:00.818Z,95437.00
2023-05-19T01:03:00.913Z,95435.00
2023-05-19T01:04:00.933Z,95437.00
2023-05-19T01:05:00.867Z,95433.00
2023-05-19T01:06:01.228Z,95435.00
2023-05-19T01:07:01.253Z,95435.00
2023-05-19T01:08:01.276Z,95435.00
2023-05-19T01:09:01.298Z,95435.00
2023-05-19T01:10:01.291Z,95435.00
2023-05-19T01:11:01.277Z,95433.00
2023-05-19T01:12:01.296Z,95435.00
2023-05-19T01:13:01.280Z,95433.00
2023-05-19T01:14:01.289Z,95439.00
2023-05-19T01:15:01.279Z,95431.00
2023-05-19T01:16:01.396Z,95431.00
2023-05-19T01:17:01.282Z,95429.00
2023-05-19T01:18:02.270Z,95429.00
2023-05-19T01:19:01.287Z,95435.00
2023-05-19T01:20:01.304Z,95433.00
2023-05-19T01:21:01.296Z,95433.00
2023-05-19T01:22:01.322Z,95433.00
2023-05-19T01:23:01.283Z,95435.00
2023-05-19T01:24:01.283Z,95429.00
2023-05-19T01:25:01.285Z,95435.00
2023-05-19T01:26:01.290Z,95435.00
2023-05-19T01:27:01.294Z,95431.00
2023-05-19T01:28:01.299Z,95429.00
2023-05-19T01:29:01.351Z,95427.00
2023-05-19T01:30:01.282Z,95431.00
2023-05-19T01:31:01.290Z,95433.00
2023-05-19T01:32:01.338Z,95427.00
2023-05-19T01:33:01.372Z,95431.00
2023-05-19T01:34:01.296Z,95431.00
2023-05-19T01:35:01.301Z,95429.00
2023-05-19T01:36:01.326Z,95429.00
2023-05-19T01:37:01.343Z,95429.00
2023-05-19T01:38:01.367Z,95433.00
2023-05-19T01:39:01.373Z,95435.00
2023-05-19T01:40:01.388Z,95435.00
2023-05-19T01:41:01.418Z,95433.00
2023-05-19T01:42:01.414Z,95431.00
2023-05-19T01:43:01.423Z,95433.00
2023-05-19T01:44:01.434Z,95431.00
2023-05-19T01:45:01.449Z,95433.00
2023-05-19T01:46:01.461Z,95433.00
2023-05-19T01:47:01.493Z,95431.00
2023-05-19T01:48:01.538Z,95431.00
2023-05-19T01:49:01.504Z,95431.00
2023-05-19T01:50:01.563Z,95431.00
2023-05-19T01:51:01.525Z,95435.00
2023-05-19T01:52:01.529Z,95433.00
2023-05-19T01:53:01.550Z,95435.00
2023-05-19T01:54:01.572Z,95437.00
2023-05-19T01:55:01.586Z,95435.00
2023-05-19T01:56:01.670Z,95439.00
2023-05-19T01:57:01.642Z,95437.00
2023-05-19T01:58:01.654Z,95437.00
2023-05-19T01:59:01.656Z,95441.00
2023-05-19T02:00:01.681Z,95439.00
2023-05-19T02:01:01.705Z,95439.00
2023-05-19T02:02:01.708Z,95437.00
2023-05-19T02:03:01.783Z,95441.00
2023-05-19T02:04:01.798Z,95441.00
2023-05-19T02:05:01.754Z,95441.00
2023-05-19T02:06:01.761Z,95439.00
2023-05-19T02:07:01.766Z,95439.00
2023-05-19T02:08:01.778Z,95437.00
2023-05-19T02:09:01.784Z,95439.00
2023-05-19T02:10:01.811Z,95441.00
2023-05-19T02:11:01.813Z,95441.00
2023-05-19T02:12:01.832Z,95441.00
2023-05-19T02:13:01.864Z,95439.00
2023-05-19T02:14:01.849Z,95439.00
2023-05-19T02:15:01.875Z,95439.00
2023-05-19T02:16:01.964Z,95439.00
2023-05-19T02:17:01.891Z,95443.00
2023-05-19T02:18:01.918Z,95443.00
2023-05-19T02:19:01.946Z,95443.00
2023-05-19T02:20:01.933Z,95445.00
2023-05-19T02:21:01.918Z,95443.00
2023-05-19T02:22:01.925Z,95445.00
2023-05-19T02:23:01.950Z,95443.00
2023-05-19T02:24:01.952Z,95443.00
2023-05-19T02:25:01.960Z,95441.00
2023-05-19T02:26:01.972Z,95439.00
2023-05-19T02:27:01.994Z,95441.00
2023-05-19T02:28:02.021Z,95441.00
2023-05-19T02:29:02.001Z,95439.00
2023-05-19T02:30:02.033Z,95441.00
2023-05-19T02:31:02.049Z,95441.00
2023-05-19T02:32:02.103Z,95439.00
2023-05-19T02:33:02.060Z,95439.00
2023-05-19T02:34:02.058Z,95437.00
2023-05-19T02:35:02.117Z,95439.00
2023-05-19T02:36:02.105Z,95437.00
2023-05-19T02:37:02.079Z,95437.00
2023-05-19T02:38:02.084Z,95435.00
2023-05-19T02:39:02.111Z,95437.00
2023-05-19T02:40:02.101Z,95437.00
2023-05-19T02:41:02.116Z,95435.00
2023-05-19T02:42:02.119Z,95437.00
2023-05-19T02:43:02.119Z,95433.00
2023-05-19T02:44:02.176Z,95435.00
2023-05-19T02:45:02.143Z,95435.00
2023-05-19T02:46:02.172Z,95435.00
2023-05-19T02:47:02.155Z,95431.00
2023-05-19T02:48:02.225Z,95435.00
2023-05-19T02:49:02.196Z,95435.00
2023-05-19T02:50:02.184Z,95435.00
2023-05-19T02:51:02.221Z,95435.00
2023-05-19T02:52:02.293Z,95433.00
2023-05-19T02:53:02.226Z,95435.00
2023-05-19T02:54:02.244Z,95437.00
2023-05-19T02:55:02.231Z,95439.00
2023-05-19T02:56:02.249Z,95437.00
2023-05-19T02:57:02.262Z,95435.00
2023-05-19T02:58:02.278Z,95437.00
2023-05-19T02:59:02.384Z,95435.00
2023-05-19T03:00:02.293Z,95435.00
2023-05-19T03:01:02.304Z,95433.00
2023-05-19T03:02:02.410Z,95431.00
2023-05-19T03:03:02.478Z,95431.00
2023-05-19T03:04:02.520Z,95429.00
2023-05-19T03:05:02.379Z,95429.00
2023-05-19T03:06:02.369Z,95427.00
2023-05-19T03:07:02.386Z,95427.00
2023-05-19T03:08:02.455Z,95429.00
2023-05-19T03:09:02.404Z,95427.00
2023-05-19T03:10:02.423Z,95429.00
2023-05-19T03:11:02.431Z,95429.00
2023-05-19T03:12:02.448Z,95429.00
2023-05-19T03:13:02.457Z,95427.00
2023-05-19T03:14:02.475Z,95427.00
2023-05-19T03:15:02.491Z,95429.00
2023-05-19T03:16:02.513Z,95423.00
2023-05-19T03:17:02.558Z,95425.00
2023-05-19T03:18:02.545Z,95425.00
2023-05-19T03:19:02.590Z,95423.00
2023-05-19T03:20:02.561Z,95425.00
2023-05-19T03:21:02.567Z,95425.00
2023-05-19T03:22:02.574Z,95425.00
2023-05-19T03:23:02.579Z,95427.00
2023-05-19T03:24:02.624Z,95427.00
2023-05-19T03:25:02.603Z,95427.00
2023-05-19T03:26:02.624Z,95429.00
2023-05-19T03:27:02.636Z,95429.00
2023-05-19T03:28:02.637Z,95427.00
2023-05-19T03:29:02.643Z,95427.00
2023-05-19T03:30:03.849Z,95427.00
2023-05-19T03:31:02.653Z,95429.00
2023-05-19T03:32:02.684Z,95427.00
2023-05-19T03:33:02.737Z,95429.00
2023-05-19T03:34:02.659Z,95427.00
2023-05-19T03:35:02.592Z,95429.00
2023-05-19T03:36:02.588Z,95431.00
2023-05-19T03:37:02.563Z,95427.00
2023-05-19T03:38:02.557Z,95429.00
2023-05-19T03:39:02.535Z,95429.00
2023-05-19T03:40:02.560Z,95431.00
2023-05-19T03:41:02.540Z,95427.00
2023-05-19T03:42:02.489Z,95427.00
2023-05-19T03:43:02.478Z,95425.00
2023-05-19T03:44:02.487Z,95427.00
2023-05-19T03:45:02.448Z,95427.00
2023-05-19T03:46:02.569Z,95429.00
2023-05-19T03:47:02.404Z,95429.00
2023-05-19T03:48:02.442Z,95431.00
2023-05-19T03:49:02.365Z,95433.00
2023-05-19T03:50:02.359Z,95431.00
2023-05-19T03:51:02.328Z,95431.00
2023-05-19T03:52:02.313Z,95431.00
2023-05-19T03:53:02.316Z,95431.00
2023-05-19T03:54:02.294Z,95431.00
2023-05-19T03:55:02.285Z,95433.00
2023-05-19T03:56:02.348Z,95431.00
2023-05-19T03:57:02.264Z,95435.00
2023-05-19T03:58:02.243Z,95435.00
2023-05-19T03:59:02.226Z,95435.00
2023-05-19T04:00:02.231Z,95435.00
2023-05-19T04:01:02.203Z,95435.00
2023-05-19T04:02:02.246Z,95435.00
2023-05-19T04:03:02.221Z,95431.00
2023-05-19T04:04:02.193Z,95431.00
2023-05-19T04:05:02.134Z,95431.00
2023-05-19T04:06:02.138Z,95427.00
2023-05-19T04:07:02.114Z,95429.00
2023-05-19T04:08:02.103Z,95429.00
2023-05-19T04:09:02.085Z,95429.00
2023-05-19T04:10:02.067Z,95427.00
2023-05-19T04:11:02.071Z,95427.00
2023-05-19T04:12:02.102Z,95429.00
2023-05-19T04:13:02.044Z,95429.00
2023-05-19T04:14:02.038Z,95429.00
2023-05-19T04:15:02.020Z,95431.00
2023-05-19T04:16:02.103Z,95431.00
2023-05-19T04:17:01.979Z,95429.00
2023-05-19T04:18:02.049Z,95427.00
2023-05-19T04:19:02.027Z,95425.00
2023-05-19T04:20:01.939Z,95425.00
2023-05-19T04:21:01.934Z,95425.00
2023-05-19T04:22:01.918Z,95425.00
2023-05-19T04:23:01.932Z,95425.00
2023-05-19T04:24:01.953Z,95425.00
2023-05-19T04:25:01.947Z,95425.00
2023-05-19T04:26:02.030Z,95427.00
2023-05-19T04:27:01.965Z,95429.00
2023-05-19T04:28:02.003Z,95429.00
2023-05-19T04:29:01.999Z,95429.00
2023-05-19T04:30:02.001Z,95431.00
2023-05-19T04:31:02.029Z,95433.00
2023-05-19T04:32:02.021Z,95433.00
2023-05-19T04:33:02.040Z,95435.00
2023-05-19T04:34:02.049Z,95433.00
2023-05-19T04:35:02.044Z,95433.00
2023-05-19T04:36:02.053Z,95433.00
2023-05-19T04:37:02.071Z,95433.00
2023-05-19T04:38:02.070Z,95431.00
2023-05-19T04:39:02.103Z,95435.00
2023-05-19T04:40:02.138Z,95437.00
2023-05-19T04:41:02.105Z,95439.00
2023-05-19T04:42:02.102Z,95437.00
2023-05-19T04:43:02.360Z,95437.00
2023-05-19T04:44:02.182Z,95437.00
2023-05-19T04:45:02.149Z,95439.00
2023-05-19T04:46:02.153Z,95443.00
2023-05-19T04:47:02.236Z,95441.00
2023-05-19T04:48:02.246Z,95441.00
2023-05-19T04:49:02.175Z,95441.00
2023-05-19T04:50:02.198Z,95441.00
2023-05-19T04:51:02.192Z,95443.00
2023-05-19T04:52:02.192Z,95443.00
2023-05-19T04:53:02.204Z,95443.00
2023-05-19T04:54:02.211Z,95439.00
2023-05-19T04:55:02.227Z,95439.00
2023-05-19T04:56:02.240Z,95439.00
2023-05-19T04:57:02.237Z,95439.00
2023-05-19T04:58:02.236Z,95439.00
2023-05-19T04:59:02.254Z,95439.00
2023-05-19T05:00:02.282Z,95439.00
2023-05-19T05:01:02.262Z,95439.00
2023-05-19T05:02:02.300Z,95439.00
2023-05-19T05:03:02.360Z,95439.00
2023-05-19T05:04:02.499Z,95437.00
2023-05-19T05:05:02.298Z,95435.00
2023-05-19T05:06:02.336Z,95433.00
2023-05-19T05:07:02.300Z,95433.00
2023-05-19T05:08:02.310Z,95433.00
2023-05-19T05:09:02.320Z,95435.00
2023-05-19T05:10:02.332Z,95435.00
2023-05-19T05:11:02.376Z,95437.00
2023-05-19T05:12:02.361Z,95437.00
2023-05-19T05:13:02.383Z,95435.00
2023-05-19T05:14:02.381Z,95435.00
2023-05-19T05:15:02.407Z,95437.00
2023-05-19T05:16:02.463Z,95433.00
2023-05-19T05:17:02.409Z,95433.00
2023-05-19T05:18:02.456Z,95431.00
2023-05-19T05:19:02.660Z,95429.00
2023-05-19T05:20:02.457Z,95427.00
2023-05-19T05:21:02.469Z,95427.00
2023-05-19T05:22:02.468Z,95427.00
2023-05-19T05:23:02.491Z,95427.00
2023-05-19T05:24:02.487Z,95423.00
2023-05-19T05:25:02.497Z,95419.00
2023-05-19T05:26:02.503Z,95419.00
2023-05-19T05:27:02.515Z,95417.00
2023-05-19T05:28:02.518Z,95421.00
2023-05-19T05:29:02.522Z,95419.00
2023-05-19T05:30:02.527Z,95417.00
2023-05-19T05:31:02.945Z,95417.00
2023-05-19T05:32:02.633Z,95417.00
2023-05-19T05:33:02.657Z,95417.00
2023-05-19T05:34:02.570Z,95410.00
2023-05-19T05:35:02.584Z,95410.00
2023-05-19T05:36:02.592Z,95410.00
2023-05-19T05:37:02.610Z,95408.00
2023-05-19T05:38:02.622Z,95408.00
2023-05-19T05:39:02.649Z,95408.00
2023-05-19T05:40:02.659Z,95408.00
2023-05-19T05:41:02.644Z,95417.00
2023-05-19T05:42:02.665Z,95410.00
2023-05-19T05:43:02.659Z,95410.00
2023-05-19T05:44:02.676Z,95406.00
2023-05-19T05:45:02.667Z,95410.00
2023-05-19T05:46:02.740Z,95408.00
2023-05-19T05:47:02.691Z,95408.00
2023-05-19T05:48:02.813Z,95410.00
2023-05-19T05:49:02.706Z,95408.00
2023-05-19T05:50:02.693Z,95417.00
2023-05-19T05:51:02.733Z,95417.00
2023-05-19T05:52:06.351Z,95417.00
2023-05-19T05:53:02.719Z,95410.00
2023-05-19T05:54:02.667Z,95408.00
2023-05-19T05:55:02.660Z,95408.00
2023-05-19T05:56:02.653Z,95408.00
2023-05-19T05:57:02.720Z,95406.00
2023-05-19T05:58:02.630Z,95408.00
2023-05-19T05:59:02.611Z,95410.00
2023-05-19T06:00:02.603Z,95417.00
2023-05-19T06:01:02.584Z,95419.00
2023-05-19T06:02:02.622Z,95417.00
2023-05-19T06:03:02.700Z,95410.00
2023-05-19T06:04:02.586Z,95410.00
2023-05-19T06:05:02.623Z,95410.00
2023-05-19T06:06:02.525Z,95417.00
2023-05-19T06:07:02.491Z,95410.00
2023-05-19T06:08:02.516Z,95410.00
2023-05-19T06:09:02.507Z,95410.00
2023-05-19T06:10:02.529Z,95408.00
2023-05-19T06:11:02.514Z,95408.00
2023-05-19T06:12:02.511Z,95408.00
2023-05-19T06:13:02.518Z,95408.00
2023-05-19T06:14:02.561Z,95410.00
2023-05-19T06:15:02.504Z,95406.00
2023-05-19T06:16:02.674Z,95406.00
2023-05-19T06:17:02.513Z,95406.00
2023-05-19T06:18:02.529Z,95404.00
2023-05-19T06:19:02.613Z,95404.00
2023-05-19T06:20:02.563Z,95406.00
2023-05-19T06:21:02.542Z,95410.00
2023-05-19T06:22:02.547Z,95417.00
2023-05-19T06:23:02.553Z,95408.00
2023-05-19T06:24:02.567Z,95404.00
2023-05-19T06:25:02.553Z,95408.00
2023-05-19T06:26:02.562Z,95404.00
2023-05-19T06:27:02.561Z,95404.00
2023-05-19T06:28:02.557Z,95404.00
2023-05-19T06:29:02.554Z,95406.00
2023-05-19T06:30:02.552Z,95406.00
2023-05-19T06:31:02.630Z,95417.00
2023-05-19T06:32:02.553Z,95408.00
2023-05-19T06:33:02.598Z,95417.00
2023-05-19T06:34:02.542Z,95417.00
2023-05-19T06:35:03.483Z,95419.00
2023-05-19T06:36:02.558Z,95421.00
2023-05-19T06:37:02.685Z,95417.00
2023-05-19T06:38:02.496Z,95421.00
2023-05-19T06:39:02.815Z,95423.00
2023-05-19T06:40:02.490Z,95423.00
2023-05-19T06:41:02.488Z,95423.00
2023-05-19T06:42:02.482Z,95423.00
2023-05-19T06:43:02.462Z,95425.00
2023-05-19T06:44:02.463Z,95423.00
2023-05-19T06:45:02.462Z,95425.00
2023-05-19T06:46:02.475Z,95419.00
2023-05-19T06:47:02.499Z,95421.00
2023-05-19T06:48:02.451Z,95417.00
2023-05-19T06:49:02.506Z,95417.00
2023-05-19T06:50:02.453Z,95410.00
2023-05-19T06:51:02.432Z,95408.00
2023-05-19T06:52:02.532Z,95417.00
2023-05-19T06:53:02.425Z,95417.00
2023-05-19T06:54:02.415Z,95410.00
2023-05-19T06:55:02.407Z,95419.00
2023-05-19T06:56:02.396Z,95410.00
2023-05-19T06:57:02.391Z,95408.00
2023-05-19T06:58:02.410Z,95406.00
2023-05-19T06:59:02.373Z,95406.00
2023-05-19T07:00:02.399Z,95404.00
2023-05-19T07:01:02.371Z,95404.00
2023-05-19T07:02:02.409Z,95404.00
2023-05-19T07:03:02.453Z,95406.00
2023-05-19T07:04:02.427Z,95404.00
2023-05-19T07:05:02.353Z,95406.00
2023-05-19T07:06:02.336Z,95402.00
2023-05-19T07:07:02.360Z,95404.00
2023-05-19T07:08:02.366Z,95404.00
2023-05-19T07:09:02.347Z,95406.00
2023-05-19T07:10:02.341Z,95406.00
2023-05-19T07:11:02.368Z,95408.00
2023-05-19T07:12:02.355Z,95410.00
2023-05-19T07:13:02.359Z,95417.00
2023-05-19T07:14:02.331Z,95417.00
2023-05-19T07:15:02.340Z,95410.00
2023-05-19T07:16:02.357Z,95406.00
2023-05-19T07:17:02.317Z,95408.00
2023-05-19T07:18:02.348Z,95406.00
2023-05-19T07:19:02.310Z,95404.00
2023-05-19T07:20:02.293Z,95400.00
2023-05-19T07:21:02.303Z,95402.00
2023-05-19T07:22:02.292Z,95400.00
2023-05-19T07:23:02.308Z,95400.00
2023-05-19T07:24:02.346Z,95400.00
2023-05-19T07:25:02.280Z,95402.00
2023-05-19T07:26:02.266Z,95398.00
2023-05-19T07:27:02.261Z,95398.00
2023-05-19T07:28:02.266Z,95398.00
2023-05-19T07:29:02.264Z,95396.00
2023-05-19T07:30:02.253Z,95396.00
2023-05-19T07:31:02.261Z,95394.00
2023-05-19T07:32:02.308Z,95394.00
2023-05-19T07:33:02.266Z,95392.00
2023-05-19T07:34:02.250Z,95390.00
2023-05-19T07:35:02.285Z,95388.00
2023-05-19T07:36:02.254Z,95388.00
2023-05-19T07:37:02.239Z,95386.00
2023-05-19T07:38:02.265Z,95384.00
2023-05-19T07:39:02.365Z,95382.00
2023-05-19T07:40:02.473Z,95380.00
2023-05-19T07:41:02.240Z,95378.00
2023-05-19T07:42:02.270Z,95380.00
2023-05-19T07:43:02.235Z,95382.00
2023-05-19T07:44:02.252Z,95380.00
2023-05-19T07:45:02.241Z,95376.00
2023-05-19T07:46:02.319Z,95378.00
2023-05-19T07:47:02.232Z,95374.00
2023-05-19T07:48:02.241Z,95372.00
2023-05-19T07:49:02.231Z,95370.00
2023-05-19T07:50:02.220Z,95370.00
2023-05-19T07:51:02.220Z,95368.00
2023-05-19T07:52:02.202Z,95364.00
2023-05-19T07:53:02.202Z,95366.00
2023-05-19T07:54:02.222Z,95361.00
2023-05-19T07:55:02.211Z,95361.00
2023-05-19T07:56:02.265Z,95357.00
2023-05-19T07:57:02.209Z,95355.00
2023-05-19T07:58:02.208Z,95355.00
2023-05-19T07:59:02.218Z,95355.00
2023-05-19T08:00:02.236Z,95353.00
2023-05-19T08:01:02.216Z,95353.00
2023-05-19T08:02:02.269Z,95353.00
2023-05-19T08:03:02.339Z,95353.00
2023-05-19T08:04:02.389Z,95351.00
2023-05-19T08:05:02.255Z,95349.00
2023-05-19T08:06:02.249Z,95351.00
2023-05-19T08:07:02.281Z,95349.00
2023-05-19T08:08:02.265Z,95345.00
2023-05-19T08:09:02.245Z,95345.00
2023-05-19T08:10:02.276Z,95343.00
2023-05-19T08:11:02.266Z,95343.00
2023-05-19T08:12:02.356Z,95343.00
2023-05-19T08:13:02.281Z,95345.00
2023-05-19T08:14:02.288Z,95343.00
2023-05-19T08:15:02.286Z,95341.00
2023-05-19T08:16:02.407Z,95341.00
2023-05-19T08:17:02.306Z,95341.00
2023-05-19T08:18:02.403Z,95339.00
2023-05-19T08:19:02.313Z,95339.00
2023-05-19T08:20:02.269Z,95337.00
2023-05-19T08:21:02.262Z,95331.00
2023-05-19T08:22:02.253Z,95331.00
2023-05-19T08:23:02.247Z,95329.00
2023-05-19T08:24:02.263Z,95331.00
2023-05-19T08:25:02.276Z,95327.00
2023-05-19T08:26:02.262Z,95329.00
2023-05-19T08:27:02.258Z,95327.00
2023-05-19T08:28:02.396Z,95327.00
2023-05-19T08:29:02.276Z,95327.00
2023-05-19T08:30:02.274Z,95323.00
2023-05-19T08:31:02.312Z,95329.00
2023-05-19T08:32:02.261Z,95325.00
2023-05-19T08:33:02.445Z,95327.00
2023-05-19T08:34:02.233Z,95329.00
2023-05-19T08:35:02.233Z,95327.00
2023-05-19T08:36:02.246Z,95327.00
2023-05-19T08:37:02.254Z,95329.00
2023-05-19T08:38:02.261Z,95327.00
2023-05-19T08:39:02.320Z,95325.00
2023-05-19T08:40:02.300Z,95321.00
2023-05-19T08:41:02.294Z,95319.00
2023-05-19T08:42:02.299Z,95319.00
2023-05-19T08:43:02.313Z,95317.00
2023-05-19T08:44:02.615Z,95321.00
2023-05-19T08:45:02.432Z,95317.00
2023-05-19T08:46:02.379Z,95317.00
2023-05-19T08:47:02.471Z,95316.00
2023-05-19T08:48:02.527Z,95316.00
2023-05-19T08:49:02.420Z,95312.00
2023-05-19T08:50:02.498Z,95314.00
2023-05-19T08:51:02.486Z,95310.00
2023-05-19T08:52:02.513Z,95310.00
2023-05-19T08:53:02.534Z,95308.00
2023-05-19T08:54:02.542Z,95310.00
2023-05-19T08:55:02.556Z,95306.00
2023-05-19T08:56:02.555Z,95304.00
2023-05-19T08:57:02.576Z,95302.00
2023-05-19T08:58:02.561Z,95304.00
2023-05-19T08:59:02.550Z,95302.00
2023-05-19T09:00:02.640Z,95304.00
2023-05-19T09:01:02.592Z,95302.00
2023-05-19T09:02:02.559Z,95300.00
2023-05-19T09:04:01.655Z,95302.00
2023-05-19T09:05:02.597Z,95298.00
2023-05-19T09:06:02.544Z,95296.00
2023-05-19T09:07:02.501Z,95296.00
2023-05-19T09:08:02.498Z,95296.00
2023-05-19T09:09:02.488Z,95296.00
2023-05-19T09:10:02.468Z,95296.00
2023-05-19T09:11:02.438Z,95296.00
2023-05-19T09:12:02.440Z,95300.00
2023-05-19T09:13:02.412Z,95296.00
2023-05-19T09:14:02.402Z,95298.00
2023-05-19T09:15:02.384Z,95294.00
2023-05-19T09:16:02.429Z,95296.00
2023-05-19T09:17:02.451Z,95292.00
2023-05-19T09:18:02.425Z,95290.00
2023-05-19T09:19:02.405Z,95290.00
2023-05-19T09:20:02.333Z,95288.00
2023-05-19T09:21:02.342Z,95288.00
2023-05-19T09:22:02.314Z,95288.00
2023-05-19T09:23:02.297Z,95284.00
2023-05-19T09:24:02.288Z,95284.00
2023-05-19T09:25:02.287Z,95282.00
2023-05-19T09:26:02.315Z,95282.00
2023-05-19T09:27:02.369Z,95280.00
2023-05-19T09:28:02.379Z,95280.00
2023-05-19T09:29:02.425Z,95278.00
2023-05-19T09:30:02.480Z,95278.00
2023-05-19T09:31:02.517Z,95276.00
2023-05-19T09:32:02.578Z,95276.00
2023-05-19T09:33:02.640Z,95274.00
2023-05-19T09:34:02.572Z,95272.00
2023-05-19T09:35:02.575Z,95278.00
2023-05-19T09:36:02.596Z,95272.00
2023-05-19T09:37:02.600Z,95270.00
2023-05-19T09:38:02.606Z,95274.00
2023-05-19T09:39:02.635Z,95272.00
2023-05-19T09:40:02.677Z,95272.00
2023-05-19T09:41:02.689Z,95272.00
2023-05-19T09:42:02.709Z,95270.00
2023-05-19T09:43:02.770Z,95267.00
2023-05-19T09:44:02.778Z,95269.00
2023-05-19T09:45:02.770Z,95267.00
2023-05-19T09:46:02.810Z,95265.00
2023-05-19T09:47:02.825Z,95265.00
2023-05-19T09:48:02.905Z,95263.00
2023-05-19T09:49:02.849Z,95263.00
2023-05-19T09:50:02.845Z,95261.00
2023-05-19T09:51:02.900Z,95261.00
2023-05-19T09:52:02.901Z,95257.00
2023-05-19T09:53:02.896Z,95257.00
2023-05-19T09:54:02.909Z,95257.00
2023-05-19T09:55:03.548Z,95251.00
2023-05-19T09:56:02.945Z,95249.00
2023-05-19T09:57:02.984Z,95247.00
2023-05-19T09:58:02.993Z,95245.00
2023-05-19T09:59:03.046Z,95243.00
2023-05-19T10:00:03.083Z,95243.00
2023-05-19T10:01:03.132Z,95247.00
2023-05-19T10:02:03.348Z,95247.00
2023-05-19T10:03:03.168Z,95251.00
2023-05-19T10:04:05.243Z,95249.00
2023-05-19T10:05:03.195Z,95255.00
2023-05-19T10:06:03.159Z,95255.00
2023-05-19T10:07:03.116Z,95255.00
2023-05-19T10:08:03.092Z,95253.00
2023-05-19T10:09:03.067Z,95249.00
2023-05-19T10:10:03.052Z,95247.00
2023-05-19T10:11:03.036Z,95245.00
2023-05-19T10:12:03.014Z,95245.00
2023-05-19T10:13:02.999Z,95243.00
2023-05-19T10:14:02.974Z,95243.00
2023-05-19T10:15:02.953Z,95243.00
2023-05-19T10:16:03.285Z,95243.00
2023-05-19T10:17:03.075Z,95241.00
2023-05-19T10:18:02.905Z,95237.00
2023-05-19T10:19:02.920Z,95237.00
2023-05-19T10:20:02.911Z,95237.00
2023-05-19T10:21:02.835Z,95237.00
2023-05-19T10:22:02.810Z,95239.00
2023-05-19T10:23:02.791Z,95237.00
2023-05-19T10:24:02.765Z,95235.00
2023-05-19T10:25:02.745Z,95235.00
2023-05-19T10:26:02.739Z,95233.00
2023-05-19T10:27:02.706Z,95233.00
2023-05-19T10:28:02.697Z,95233.00
2023-05-19T10:29:02.665Z,95229.00
2023-05-19T10:30:02.642Z,95227.00
2023-05-19T10:31:02.630Z,95225.00
2023-05-19T10:32:02.708Z,95225.00
2023-05-19T10:33:02.622Z,95225.00
2023-05-19T10:34:02.575Z,95223.00
2023-05-19T10:35:02.557Z,95223.00
2023-05-19T10:36:02.620Z,95227.00
2023-05-19T10:37:02.518Z,95223.00
2023-05-19T10:38:02.497Z,95219.00
2023-05-19T10:39:02.474Z,95217.00
2023-05-19T10:40:02.452Z,95219.00
2023-05-19T10:41:02.424Z,95214.00
2023-05-19T10:42:02.432Z,95214.00
2023-05-19T10:43:02.392Z,95210.00
2023-05-19T10:44:02.367Z,95210.00
2023-05-19T10:45:02.469Z,95214.00
2023-05-19T10:46:02.417Z,95212.00
2023-05-19T10:47:02.724Z,95212.00
2023-05-19T10:48:02.499Z,95212.00
2023-05-19T10:49:02.495Z,95212.00
2023-05-19T10:50:02.495Z,95210.00
2023-05-19T10:51:02.505Z,95208.00
2023-05-19T10:52:03.114Z,95206.00
2023-05-19T10:53:02.590Z,95206.00
2023-05-19T10:54:02.612Z,95204.00
2023-05-19T10:55:02.639Z,95200.00
2023-05-19T10:56:02.665Z,95202.00
2023-05-19T10:57:02.661Z,95200.00
2023-05-19T10:58:02.649Z,95196.00
2023-05-19T10:59:02.654Z,95200.00
2023-05-19T11:00:02.677Z,95198.00
2023-05-19T11:01:02.648Z,95194.00
2023-05-19T11:02:02.654Z,95192.00
2023-05-19T11:03:02.662Z,95194.00
2023-05-19T11:04:02.665Z,95196.00
2023-05-19T11:05:02.585Z,95192.00
2023-05-19T11:06:02.568Z,95190.00
2023-05-19T11:07:02.582Z,95190.00
2023-05-19T11:08:02.738Z,95190.00
2023-05-19T11:09:02.593Z,95188.00
2023-05-19T11:10:02.594Z,95188.00
2023-05-19T11:11:02.601Z,95190.00
2023-05-19T11:12:02.616Z,95190.00
2023-05-19T11:13:02.566Z,95188.00
2023-05-19T11:14:02.570Z,95186.00
2023-05-19T11:15:02.615Z,95184.00
2023-05-19T11:16:02.584Z,95182.00
2023-05-19T11:17:02.842Z,95186.00
2023-05-19T11:18:02.671Z,95184.00
2023-05-19T11:19:02.624Z,95184.00
2023-05-19T11:20:02.631Z,95184.00
2023-05-19T11:21:02.760Z,95184.00
2023-05-19T11:22:02.629Z,95188.00
2023-05-19T11:23:02.680Z,95184.00
2023-05-19T11:24:02.707Z,95184.00
2023-05-19T11:25:02.640Z,95186.00
2023-05-19T11:26:02.635Z,95184.00
2023-05-19T11:27:02.647Z,95182.00
2023-05-19T11:28:02.641Z,95182.00
2023-05-19T11:29:02.645Z,95180.00
2023-05-19T11:30:02.630Z,95180.00
2023-05-19T11:31:02.655Z,95176.00
2023-05-19T11:32:02.727Z,95176.00
2023-05-19T11:33:02.713Z,95176.00
2023-05-19T11:34:02.739Z,95175.00
2023-05-19T11:35:02.813Z,95173.00
2023-05-19T11:36:02.771Z,95173.00
2023-05-19T11:37:02.851Z,95171.00
2023-05-19T11:38:02.820Z,95169.00
2023-05-19T11:39:02.851Z,95167.00
2023-05-19T11:40:02.938Z,95169.00
2023-05-19T11:41:02.946Z,95167.00
2023-05-19T11:42:02.936Z,95165.00
2023-05-19T11:43:02.940Z,95165.00
2023-05-19T11:44:02.980Z,95167.00
2023-05-19T11:45:02.991Z,95163.00